Latest Weather Observations for Mareeba

IDQ60801

Issued at 8:05 pm EST Saturday 25 October 2014 (issued every 30 minutes, with the page automatically refreshed every 10 minutes)

About weather observations | Map of weather stations | Latest weather observations for QLD | Other Formats
Station Details ID: 031210 Name: MAREEBA AIRPORT Lat: -17.07 Lon: 145.43 Height: 471.93 m
Data from the previous 72 hours. | See also: Recent months at Mareeba
Date/Time
EST
Temp
°C
App
Temp
°C
Dew
Point
Rel
Hum
%
Delta-T
°C
Wind Press
QNH
hPa
Press
MSL
hPa
Rain
since 9 am
mm
Dir
 
Spd
km/h
Gust
km/h
Spd
kts
Gust
kts
25/08:00pm 18.5 18.9 11.1 62 4.1 ENE 0 0 0 0 1019.1 - 0.0
25/07:30pm 20.6 19.9 11.5 56 5.1 ENE 6 9 3 5 1018.9 - 0.0
25/07:00pm 21.9 20.7 10.4 48 6.4 ESE 7 11 4 6 1018.7 - 0.0
25/06:30pm 23.5 21.2 10.6 44 7.3 ESE 13 19 7 10 1018.3 - 0.0
25/06:00pm 24.3 21.4 9.8 40 8.1 SE 15 19 8 10 1017.9 1015.1 0.0
25/05:30pm 25.6 22.4 9.8 37 8.9 ESE 17 24 9 13 1017.4 - 0.0
25/05:00pm 26.4 22.3 8.8 33 9.8 SSE 20 26 11 14 1017.0 - 0.0
25/04:30pm 26.6 23.7 9.5 34 9.6 E 15 22 8 12 1016.6 - 0.0
25/04:00pm 27.3 23.3 9.2 32 10.2 ESE 20 26 11 14 1016.5 - 0.0
25/03:30pm 27.7 25.4 9.0 31 10.5 ESE 11 20 6 11 1016.4 - 0.0
25/03:00pm 27.9 25.3 9.2 31 10.5 ESE 13 26 7 14 1016.5 1013.7 0.0
25/02:30pm 27.2 23.4 9.1 32 10.2 ESE 19 28 10 15 1016.7 - 0.0
25/02:00pm 27.9 24.1 9.2 31 10.5 ESE 19 30 10 16 1016.9 - 0.0
25/01:30pm 27.1 23.4 9.5 33 9.9 ENE 19 28 10 15 1017.3 - 0.0
25/01:00pm 27.3 24.9 10.1 34 9.8 SSE 13 33 7 18 1017.7 - 0.0
25/12:30pm 26.8 23.3 10.1 35 9.5 E 19 32 10 17 1018.1 - 0.0
25/12:00pm 26.7 23.4 10.8 37 9.1 E 19 30 10 16 1018.5 1015.7 0.0
25/11:30am 26.3 23.3 10.5 37 9.0 ESE 17 28 9 15 1019.1 - 0.0
25/11:00am 26.2 22.7 10.8 38 8.8 ESE 20 32 11 17 1019.5 - 0.0
25/10:30am 25.8 22.4 11.2 40 8.4 ESE 20 35 11 19 1019.7 - 0.0
25/10:00am 24.9 22.1 11.5 43 7.7 E 17 30 9 16 1020.1 - 0.0
25/09:30am 23.9 21.0 10.9 44 7.4 E 17 28 9 15 1020.2 - 0.0
25/09:00am 23.5 20.1 10.6 44 7.3 ESE 19 28 10 15 1020.5 1017.7 0.0
25/08:30am 23.0 20.6 11.4 48 6.6 ESE 15 20 8 11 1020.4 - 0.0
25/08:00am 21.8 19.9 11.8 53 5.7 E 13 19 7 10 1020.3 - 0.0
25/07:30am 21.1 20.0 13.0 60 4.7 E 11 15 6 8 1019.9 - 0.0
25/07:00am 19.6 17.8 13.3 67 3.7 ESE 15 20 8 11 1019.4 - 0.0
25/06:30am 18.1 16.3 13.2 73 2.8 SE 15 20 8 11 1019.1 - 0.0
25/06:00am 16.7 15.2 13.0 79 2.1 SE 13 15 7 8 1018.9 1016.2 0.0
25/05:30am 16.9 15.6 12.6 76 2.4 ESE 11 15 6 8 1018.9 - 0.0
25/05:00am 16.7 15.7 12.3 75 2.5 ESE 9 13 5 7 1018.7 - 0.0
25/04:30am 16.3 15.5 12.8 80 2.0 E 9 11 5 6 1018.5 - 0.0
25/04:00am 16.4 16.2 13.5 83 1.7 ESE 7 9 4 5 1018.3 - 0.0
25/03:30am 15.7 16.5 12.5 81 1.8 CALM 0 0 0 0 1018.3 - 0.0
25/03:00am 15.7 15.4 12.6 82 1.7 SE 6 7 3 4 1018.4 1015.6 0.0
25/02:30am 15.9 15.5 13.0 83 1.6 S 7 9 4 5 1018.5 - 0.0
25/02:00am 16.3 15.6 13.2 82 1.8 S 9 13 5 7 1018.6 - 0.0
25/01:30am 16.4 16.2 13.1 81 1.9 ESE 6 9 3 5 1018.9 - 0.0
25/01:00am 16.4 16.2 13.1 81 1.9 SSE 6 7 3 4 1019.4 - 0.0
25/12:30am 16.9 16.3 13.6 81 1.9 S 9 15 5 8 1019.5 - 0.0
25/12:00am 16.6 15.7 13.7 83 1.7 SSW 11 15 6 8 1019.7 1017.0 0.0
 
Date/Time
EST
Temp
°C
App
Temp
°C
Dew
Point
Rel
Hum
%
Delta-T
°C
Wind Press
QNH
hPa
Press
MSL
hPa
Rain
since 9 am
mm
Dir
 
Spd
km/h
Gust
km/h
Spd
kts
Gust
kts
24/11:30pm 16.8 15.9 13.7 82 1.8 SSW 11 15 6 8 1020.1 - 0.0
24/11:00pm 16.8 16.0 13.9 83 1.7 S 11 13 6 7 1020.4 - 0.0
24/10:30pm 17.1 16.6 13.8 81 1.9 S 9 11 5 6 1020.7 - 0.0
24/10:00pm 17.2 17.0 13.7 80 2.0 S 7 11 4 6 1020.7 - 0.0
24/09:30pm 17.5 17.0 13.8 79 2.1 S 9 9 5 5 1020.5 - 0.0
24/09:00pm 18.0 17.1 13.7 76 2.5 S 11 11 6 6 1020.2 1017.4 0.0
24/08:30pm 18.9 18.4 12.6 67 3.6 SSE 7 11 4 6 1020.1 - 0.0
24/08:00pm 19.5 18.2 12.5 64 4.0 SE 11 15 6 8 1019.5 - 0.0
24/07:30pm 20.9 18.3 12.1 57 5.0 ESE 17 24 9 13 1019.3 - 0.0
24/07:00pm 21.2 18.4 12.6 58 5.0 ESE 19 26 10 14 1018.9 - 0.0
24/06:30pm 21.8 18.8 12.1 54 5.6 SE 19 24 10 13 1018.7 - 0.0
24/06:00pm 23.5 20.1 11.2 46 7.0 ESE 20 30 11 16 1018.3 1015.5 0.0
24/05:30pm 24.3 20.2 10.2 41 7.9 SSE 22 32 12 17 1017.8 - 0.0
24/05:00pm 25.2 20.7 11.4 42 8.0 SE 26 33 14 18 1017.2 - 0.0
24/04:30pm 26.0 20.6 9.4 35 9.3 ESE 28 37 15 20 1016.9 - 0.0
24/04:00pm 26.3 21.2 10.5 37 9.0 SE 28 39 15 21 1016.8 - 0.0
24/03:30pm 27.5 22.2 9.8 33 10.1 SE 28 48 15 26 1016.8 - 0.0
24/03:27pm 26.8 21.3 9.2 33 9.9 SE 28 48 15 26 1016.8 - 0.0
24/03:00pm 27.6 21.8 9.4 32 10.3 SE 30 35 16 19 1017.0 1014.3 0.0
24/02:30pm 27.8 22.9 10.1 33 10.1 SE 26 41 14 22 1016.9 - 0.0
24/02:00pm 27.9 22.4 9.2 31 10.5 SE 28 43 15 23 1017.1 - 0.0
24/01:30pm 27.6 22.7 9.9 33 10.1 SSE 26 39 14 21 1017.4 - 0.0
24/01:00pm 27.4 23.1 9.3 32 10.2 SSE 22 35 12 19 1017.8 - 0.0
24/12:44pm 26.8 21.3 9.2 33 9.9 S 28 46 15 25 1018.0 - 0.0
24/12:30pm 27.9 23.9 10.6 34 10.0 SE 22 35 12 19 1018.3 - 0.0
24/12:00pm 27.3 23.4 9.6 33 10.0 ESE 20 30 11 16 1018.7 1016.0 0.0
24/11:30am 26.8 23.8 10.5 36 9.3 ESE 17 33 9 18 1019.0 - 0.0
24/11:00am 27.1 24.5 10.7 35 9.4 E 15 30 8 16 1019.4 - 0.0
24/10:30am 25.9 21.5 8.8 34 9.5 ESE 22 35 12 19 1019.9 - 0.0
24/10:00am 25.3 21.3 9.2 36 9.0 SE 20 32 11 17 1020.1 - 0.0
24/09:30am 25.0 21.5 10.1 39 8.4 ESE 19 26 10 14 1020.4 - 0.0
24/09:00am 24.2 20.6 9.8 40 8.0 ESE 19 30 10 16 1020.5 1017.7 0.0
24/08:30am 23.2 20.1 11.6 48 6.7 E 19 28 10 15 1020.4 - 0.0
24/08:00am 22.7 20.1 12.0 50 6.2 ESE 17 28 9 15 1020.2 - 0.0
24/07:30am 21.4 20.3 13.1 59 4.8 ENE 11 20 6 11 1020.0 - 0.0
24/07:00am 20.1 19.7 14.2 69 3.5 E 9 15 5 8 1019.6 - 0.0
24/06:30am 17.8 18.0 14.7 82 1.8 SSE 7 11 4 6 1019.4 - 0.0
24/06:00am 16.2 16.1 13.9 86 1.3 S 7 9 4 5 1019.2 1016.5 0.0
24/05:30am 16.7 16.2 13.8 83 1.7 SSE 9 13 5 7 1019.0 - 0.0
24/05:00am 17.5 16.4 14.2 81 1.9 SSE 13 15 7 8 1018.6 - 0.0
24/04:30am 17.8 17.0 15.1 84 1.6 SSE 13 15 7 8 1018.3 - 0.0
24/04:00am 17.4 16.9 14.9 85 1.5 S 11 13 6 7 1018.1 - 0.0
24/03:30am 17.2 16.6 14.7 85 1.5 SSE 11 15 6 8 1018.2 - 0.0
24/03:00am 17.4 16.9 14.9 85 1.5 SSE 11 15 6 8 1018.2 1015.4 0.0
24/02:30am 17.0 16.4 14.6 86 1.4 SSE 11 17 6 9 1018.3 - 0.0
24/02:00am 16.7 15.5 14.0 84 1.6 S 13 17 7 9 1018.5 - 0.0
24/01:30am 16.8 15.6 13.9 83 1.7 SSE 13 19 7 10 1019.0 - 0.0
24/01:00am 16.5 15.3 14.0 85 1.5 S 13 17 7 9 1019.4 - 0.0
24/12:30am 16.7 16.0 14.2 85 1.5 SSE 11 13 6 7 1019.7 - 0.0
24/12:00am 16.9 16.1 14.0 83 1.7 SSE 11 15 6 8 1020.2 1017.4 0.0
 
Date/Time
EST
Temp
°C
App
Temp
°C
Dew
Point
Rel
Hum
%
Delta-T
°C
Wind Press
QNH
hPa
Press
MSL
hPa
Rain
since 9 am
mm
Dir
 
Spd
km/h
Gust
km/h
Spd
kts
Gust
kts
23/11:30pm 16.6 15.9 14.2 86 1.4 SSE 11 13 6 7 1020.4 - 0.0
23/11:00pm 16.0 15.4 13.5 85 1.4 SSE 9 13 5 7 1020.6 - 0.0
23/10:30pm 16.4 16.2 13.5 83 1.7 S 7 9 4 5 1020.8 - 0.0
23/10:00pm 17.8 17.8 14.3 80 2.1 ENE 7 9 4 5 1020.7 - 0.0
23/09:30pm 17.6 18.3 13.5 77 2.4 ESE 2 7 1 4 1020.6 - 0.0
23/09:00pm 18.5 18.6 14.0 75 2.6 ESE 6 7 3 4 1020.3 1017.5 0.0
23/08:30pm 18.9 17.9 13.5 71 3.1 S 11 15 6 8 1019.7 - 0.0
23/08:00pm 19.5 18.3 12.7 65 3.9 SE 11 17 6 9 1019.7 - 0.0
23/07:30pm 20.0 18.3 12.3 61 4.4 SE 13 20 7 11 1019.4 - 0.0
23/07:00pm 21.1 18.1 12.5 58 5.0 ESE 20 24 11 13 1019.0 - 0.0
23/06:30pm 21.9 18.3 11.9 53 5.7 SE 22 32 12 17 1018.4 - 0.0
23/06:00pm 22.9 19.3 11.9 50 6.3 SE 22 32 12 17 1017.9 1015.1 0.0
23/05:30pm 24.4 21.6 12.7 48 6.9 ESE 19 28 10 15 1017.2 - 0.0
23/05:00pm 25.3 22.5 12.5 45 7.5 ESE 19 32 10 17 1016.7 - 0.0
23/04:30pm 26.3 22.5 12.4 42 8.2 SE 24 35 13 19 1016.3 - 0.0
23/04:00pm 26.2 21.7 11.5 40 8.5 SE 26 33 14 18 1016.1 - 0.0
23/03:30pm 27.5 23.4 12.7 40 8.8 SE 26 33 14 18 1016.0 - 0.0
23/03:00pm 27.4 22.4 11.0 36 9.5 SE 28 44 15 24 1016.1 1013.3 0.0
23/02:30pm 27.5 23.0 10.2 34 9.9 SE 24 41 13 22 1016.1 - 0.0
23/02:00pm 28.1 23.2 8.4 29 11.0 SE 24 35 13 19 1016.3 - 0.0
23/01:30pm 27.7 22.1 8.6 30 10.7 SE 28 37 15 20 1016.8 - 0.0
23/01:00pm 27.1 20.8 7.5 29 10.7 SE 30 41 16 22 1017.1 - 0.0
23/12:30pm 27.6 21.7 9.0 31 10.4 SSE 30 43 16 23 1017.7 - 0.0
23/12:00pm 27.0 20.9 8.4 31 10.3 SE 30 44 16 24 1018.2 1015.4 0.0
23/11:30am 26.3 20.8 9.2 34 9.6 SE 28 39 15 21 1018.7 - 0.0
23/11:00am 26.5 20.4 9.8 35 9.4 SE 32 46 17 25 1019.0 - 0.0
23/10:30am 24.6 20.1 10.1 40 8.2 SE 24 35 13 19 1019.4 - 0.0
23/10:15am 25.0 19.6 10.8 41 8.1 ESE 30 48 16 26 1019.4 - 0.0
23/10:00am 24.9 21.3 10.7 40 8.1 SE 20 30 11 16 1019.7 - 0.0
23/09:30am 23.8 20.0 11.2 45 7.2 ESE 22 33 12 18 1019.9 - 0.0
23/09:00am 23.4 20.0 12.4 50 6.4 SE 22 30 12 16 1019.9 1017.1 0.0
23/08:30am 22.8 19.3 13.3 55 5.6 SE 24 32 13 17 1019.9 - 0.0
23/08:00am 22.1 18.3 13.7 59 5.0 SE 26 33 14 18 1019.6 - 0.0
23/07:30am 20.5 19.3 13.9 66 3.9 SE 13 20 7 11 1019.6 - 0.0
23/07:00am 19.3 18.5 14.1 72 3.1 ESE 11 19 6 10 1019.4 - 0.0
23/06:30am 16.4 16.8 13.7 84 1.6 E 4 7 2 4 1019.1 - 0.0
23/06:00am 16.3 15.7 13.4 83 1.7 SSE 9 13 5 7 1018.7 1016.0 0.0
23/05:30am 15.8 15.1 13.1 84 1.5 S 9 15 5 8 1018.5 - 0.0
23/05:00am 16.4 15.8 13.5 83 1.7 SE 9 13 5 7 1018.2 - 0.0
23/04:30am 16.0 15.2 12.9 82 1.8 S 9 15 5 8 1018.1 - 0.0
23/04:00am 17.0 15.9 13.1 78 2.2 SSE 11 13 6 7 1018.0 - 0.0
23/03:30am 17.3 16.3 13.4 78 2.2 SE 11 19 6 10 1018.1 - 0.0
23/03:00am 17.2 16.6 13.5 79 2.1 SSE 9 19 5 10 1018.3 1015.5 0.0
23/02:30am 17.0 16.5 13.7 81 1.9 SE 9 17 5 9 1018.5 - 0.0
23/02:00am 17.8 16.5 13.7 77 2.4 SSE 13 20 7 11 1018.8 - 0.0
23/01:30am 18.6 17.4 13.9 74 2.7 SSE 13 19 7 10 1019.1 - 0.0
23/01:00am 18.5 17.3 14.0 75 2.6 SE 13 17 7 9 1019.4 - 0.0
23/12:30am 18.1 18.8 14.4 79 2.2 SE 4 13 2 7 1019.9 - 0.0
23/12:00am 18.1 18.9 13.8 76 2.5 E 2 11 1 6 1020.2 1017.4 0.0
 
Date/Time
EST
Temp
°C
App
Temp
°C
Dew
Point
Rel
Hum
%
Delta-T
°C
Wind Press
QNH
hPa
Press
MSL
hPa
Rain
since 9 am
mm
Dir
 
Spd
km/h
Gust
km/h
Spd
kts
Gust
kts
22/11:30pm 18.7 19.4 14.4 76 2.5 E 4 7 2 4 1020.5 - 0.0
22/11:00pm 17.9 19.1 13.8 77 2.4 CALM 0 0 0 0 1020.8 - 0.0
22/10:30pm 19.0 18.9 13.8 72 3.0 ESE 7 11 4 6 1020.9 - 0.0
22/10:00pm 19.3 18.2 14.3 73 3.0 SE 13 19 7 10 1020.9 - 0.0
22/09:30pm 18.8 18.5 14.3 75 2.7 SSE 9 13 5 7 1020.7 - 0.0
22/09:00pm 18.9 18.3 14.6 76 2.5 SE 11 17 6 9 1020.4 1017.6 0.0
22/08:30pm 18.7 18.6 14.0 74 2.8 SSE 7 9 4 5 1020.2 - 0.0

Other Formats:

Comma delimited format used in spreadsheet applications
http://www.bom.gov.au/fwo/IDQ60801/IDQ60801.95286.axf

JavaScript Object Notation format (JSON) in row-major order
http://www.bom.gov.au/fwo/IDQ60801/IDQ60801.95286.json